Portada
METAR-TAF:

METAR-TAF

Aeroports :

Pattani, Tailàndia

latitud: 06-47-08N, longitud: 101-09-13E, altitud: 2 m

METAR: manca

Hora: 06:01 (23:01 UTC)

Pronòstic

L'informe es va fer fa 6 hores i 1 minuts, a les 17:00 UTC
Pronòstic vàlid del 20 a les 18 UTC al 21 a les 18 UTC
Vent 3 kt del Sud-Est
Visibilitat: 8000 m
Núvols disperses a una alçada de 2000 ft
Evolucionant progressivament
l' 21 a les 02 UTC al 21 a les 04 UTC
Vent 10 kt del Est
Probabilitat 40% :
Temporalment
l' 21 a les 04 UTC al 21 a les 10 UTC
Visibilitat: 5000 m
Núvols disperses a una alçada de 1500 ft
Cel ennuvolat a una alçada de 10000 ft
pluja
Evolucionant progressivament
l' 21 a les 14 UTC al 21 a les 16 UTC
Vent 3 kt del Sud-Est

TAF: VTSK 201700Z 2018/2118 14003KT 8000 SCT020 BECMG 2102/2104 08010KT PROB40 TEMPO 2104/2110 5000 RA SCT015 BKN100 BECMG 2114/2116 14003KT

Observacions i pronòstics meteorològics de més de 4000 aeroports (METAR i TAF).

Les estacions disponibles són els punts grocs i vermells al mapa.

Posi el ratolí al punt desitjat per veure el nom de l'estació.

Feu clic per veure les observacions i els pronòstics meteorològics.

Per canviar el mapa: feu clic els botons verds amb una creu de color negre per apropar; al botó verd amb un guió per allunyar la imatge; o en les fletxes verdes per a mapes adjacents.


METAR-TAF: